sensor_id;sensor_type;location;lat;lon;timestamp;temperature;humidity
69054;DHT22;56125;52.242;4.756;2023-07-09T00:02:26;23.70;61.00
69054;DHT22;56125;52.242;4.756;2023-07-09T00:07:30;23.70;60.90
69054;DHT22;56125;52.242;4.756;2023-07-09T00:12:31;23.80;61.00
69054;DHT22;56125;52.242;4.756;2023-07-09T00:17:33;23.70;61.00
69054;DHT22;56125;52.242;4.756;2023-07-09T00:22:34;23.80;61.00
69054;DHT22;56125;52.242;4.756;2023-07-09T00:27:35;23.70;61.10
69054;DHT22;56125;52.242;4.756;2023-07-09T00:32:36;23.70;61.20
69054;DHT22;56125;52.242;4.756;2023-07-09T00:37:44;23.70;61.10
69054;DHT22;56125;52.242;4.756;2023-07-09T00:42:47;23.70;61.60
69054;DHT22;56125;52.242;4.756;2023-07-09T00:48:04;23.70;61.30
69054;DHT22;56125;52.242;4.756;2023-07-09T00:53:31;23.70;61.20
69054;DHT22;56125;52.242;4.756;2023-07-09T00:58:33;23.70;61.10
69054;DHT22;56125;52.242;4.756;2023-07-09T01:03:45;23.70;61.10
69054;DHT22;56125;52.242;4.756;2023-07-09T01:08:48;23.60;61.10
69054;DHT22;56125;52.242;4.756;2023-07-09T01:13:56;23.60;61.30
69054;DHT22;56125;52.242;4.756;2023-07-09T01:18:58;23.60;61.40
69054;DHT22;56125;52.242;4.756;2023-07-09T01:24:10;23.60;61.60
69054;DHT22;56125;52.242;4.756;2023-07-09T01:29:11;23.60;61.50
69054;DHT22;56125;52.242;4.756;2023-07-09T01:34:13;23.60;61.60
69054;DHT22;56125;52.242;4.756;2023-07-09T01:39:16;23.60;61.70
69054;DHT22;56125;52.242;4.756;2023-07-09T01:44:17;23.60;61.60
69054;DHT22;56125;52.242;4.756;2023-07-09T01:49:18;23.60;61.50
69054;DHT22;56125;52.242;4.756;2023-07-09T01:54:21;23.60;61.70
69054;DHT22;56125;52.242;4.756;2023-07-09T01:59:22;23.60;61.60
69054;DHT22;56125;52.242;4.756;2023-07-09T02:04:23;23.50;61.50
69054;DHT22;56125;52.242;4.756;2023-07-09T02:09:28;23.50;61.50
69054;DHT22;56125;52.242;4.756;2023-07-09T02:14:29;23.50;61.60
69054;DHT22;56125;52.242;4.756;2023-07-09T02:19:30;23.50;61.50
69054;DHT22;56125;52.242;4.756;2023-07-09T02:24:31;23.50;61.60
69054;DHT22;56125;52.242;4.756;2023-07-09T02:29:33;23.50;61.80
69054;DHT22;56125;52.242;4.756;2023-07-09T02:34:34;23.50;61.90
69054;DHT22;56125;52.242;4.756;2023-07-09T02:39:36;23.50;62.00
69054;DHT22;56125;52.242;4.756;2023-07-09T02:44:38;23.50;61.80
69054;DHT22;56125;52.242;4.756;2023-07-09T02:49:39;23.40;61.90
69054;DHT22;56125;52.242;4.756;2023-07-09T02:54:40;23.50;62.10
69054;DHT22;56125;52.242;4.756;2023-07-09T02:59:41;23.50;62.10
69054;DHT22;56125;52.242;4.756;2023-07-09T03:04:42;23.40;62.10
69054;DHT22;56125;52.242;4.756;2023-07-09T03:09:44;23.40;62.50
69054;DHT22;56125;52.242;4.756;2023-07-09T03:14:48;23.40;62.70
69054;DHT22;56125;52.242;4.756;2023-07-09T03:19:49;23.40;62.90
69054;DHT22;56125;52.242;4.756;2023-07-09T03:24:50;23.40;62.90
69054;DHT22;56125;52.242;4.756;2023-07-09T03:29:51;23.40;62.80
69054;DHT22;56125;52.242;4.756;2023-07-09T03:34:52;23.40;62.80
69054;DHT22;56125;52.242;4.756;2023-07-09T03:39:53;23.40;63.00
69054;DHT22;56125;52.242;4.756;2023-07-09T03:44:54;23.40;62.90
69054;DHT22;56125;52.242;4.756;2023-07-09T03:49:55;23.30;62.90
69054;DHT22;56125;52.242;4.756;2023-07-09T03:54:56;23.30;63.00
69054;DHT22;56125;52.242;4.756;2023-07-09T03:59:58;23.30;63.10
69054;DHT22;56125;52.242;4.756;2023-07-09T04:04:58;23.30;63.30
69054;DHT22;56125;52.242;4.756;2023-07-09T04:10:00;23.30;63.30
69054;DHT22;56125;52.242;4.756;2023-07-09T04:15:01;23.30;63.20
69054;DHT22;56125;52.242;4.756;2023-07-09T04:20:02;23.30;63.70
69054;DHT22;56125;52.242;4.756;2023-07-09T04:25:08;23.30;63.50
69054;DHT22;56125;52.242;4.756;2023-07-09T04:30:15;23.30;63.60
69054;DHT22;56125;52.242;4.756;2023-07-09T04:35:16;23.30;63.90
69054;DHT22;56125;52.242;4.756;2023-07-09T04:40:18;23.30;63.70
69054;DHT22;56125;52.242;4.756;2023-07-09T04:45:19;23.40;63.70
69054;DHT22;56125;52.242;4.756;2023-07-09T04:50:20;23.40;63.70
69054;DHT22;56125;52.242;4.756;2023-07-09T04:55:21;23.30;63.70
69054;DHT22;56125;52.242;4.756;2023-07-09T05:00:22;23.40;63.80
69054;DHT22;56125;52.242;4.756;2023-07-09T05:05:23;23.40;63.70
69054;DHT22;56125;52.242;4.756;2023-07-09T05:10:24;23.40;63.90
69054;DHT22;56125;52.242;4.756;2023-07-09T05:15:25;23.40;64.40
69054;DHT22;56125;52.242;4.756;2023-07-09T05:20:26;23.40;64.50
69054;DHT22;56125;52.242;4.756;2023-07-09T05:25:27;23.40;64.30
69054;DHT22;56125;52.242;4.756;2023-07-09T05:30:29;23.50;64.20
69054;DHT22;56125;52.242;4.756;2023-07-09T05:35:30;23.50;64.40
69054;DHT22;56125;52.242;4.756;2023-07-09T05:40:31;23.60;64.30
69054;DHT22;56125;52.242;4.756;2023-07-09T05:45:32;23.60;64.40
69054;DHT22;56125;52.242;4.756;2023-07-09T05:50:34;23.70;64.20
69054;DHT22;56125;52.242;4.756;2023-07-09T05:55:36;23.70;63.90
69054;DHT22;56125;52.242;4.756;2023-07-09T06:00:37;23.80;64.40
69054;DHT22;56125;52.242;4.756;2023-07-09T06:05:38;23.80;64.10
69054;DHT22;56125;52.242;4.756;2023-07-09T06:10:39;23.80;63.90
69054;DHT22;56125;52.242;4.756;2023-07-09T06:15:42;23.80;63.80
69054;DHT22;56125;52.242;4.756;2023-07-09T06:20:51;23.90;63.70
69054;DHT22;56125;52.242;4.756;2023-07-09T06:25:52;23.90;63.60
69054;DHT22;56125;52.242;4.756;2023-07-09T06:30:53;23.90;63.70
69054;DHT22;56125;52.242;4.756;2023-07-09T06:35:58;24.00;64.80
69054;DHT22;56125;52.242;4.756;2023-07-09T06:41:00;24.00;63.40
69054;DHT22;56125;52.242;4.756;2023-07-09T06:46:01;24.10;63.50
69054;DHT22;56125;52.242;4.756;2023-07-09T06:51:02;24.10;63.00
69054;DHT22;56125;52.242;4.756;2023-07-09T06:56:03;24.10;62.90
69054;DHT22;56125;52.242;4.756;2023-07-09T07:01:05;24.20;62.50
69054;DHT22;56125;52.242;4.756;2023-07-09T07:06:06;24.20;62.40
69054;DHT22;56125;52.242;4.756;2023-07-09T07:11:07;24.20;62.10
69054;DHT22;56125;52.242;4.756;2023-07-09T07:16:10;24.20;61.90
69054;DHT22;56125;52.242;4.756;2023-07-09T07:21:11;24.30;61.10
69054;DHT22;56125;52.242;4.756;2023-07-09T07:26:12;24.30;60.40
69054;DHT22;56125;52.242;4.756;2023-07-09T07:31:14;24.40;60.20
69054;DHT22;56125;52.242;4.756;2023-07-09T07:36:15;24.40;59.90
69054;DHT22;56125;52.242;4.756;2023-07-09T07:41:16;24.50;59.80
69054;DHT22;56125;52.242;4.756;2023-07-09T07:46:17;24.50;59.40
69054;DHT22;56125;52.242;4.756;2023-07-09T07:51:18;24.60;59.30
69054;DHT22;56125;52.242;4.756;2023-07-09T07:56:19;24.70;59.00
69054;DHT22;56125;52.242;4.756;2023-07-09T08:01:20;24.70;58.80
69054;DHT22;56125;52.242;4.756;2023-07-09T08:06:21;24.80;58.60
69054;DHT22;56125;52.242;4.756;2023-07-09T08:11:22;24.80;58.50
69054;DHT22;56125;52.242;4.756;2023-07-09T08:16:24;24.80;58.60
69054;DHT22;56125;52.242;4.756;2023-07-09T08:21:25;24.80;58.40
69054;DHT22;56125;52.242;4.756;2023-07-09T08:26:26;24.90;58.40
69054;DHT22;56125;52.242;4.756;2023-07-09T08:31:27;24.90;58.40
69054;DHT22;56125;52.242;4.756;2023-07-09T08:36:28;24.90;58.20
69054;DHT22;56125;52.242;4.756;2023-07-09T08:41:54;24.90;58.20
69054;DHT22;56125;52.242;4.756;2023-07-09T08:47:06;24.90;58.10
69054;DHT22;56125;52.242;4.756;2023-07-09T08:52:24;25.00;58.10
69054;DHT22;56125;52.242;4.756;2023-07-09T08:57:31;25.00;58.10
69054;DHT22;56125;52.242;4.756;2023-07-09T09:02:45;25.00;58.00
69054;DHT22;56125;52.242;4.756;2023-07-09T09:08:18;25.00;57.90
69054;DHT22;56125;52.242;4.756;2023-07-09T09:13:15;25.00;58.00
69054;DHT22;56125;52.242;4.756;2023-07-09T09:18:22;25.00;58.00
69054;DHT22;56125;52.242;4.756;2023-07-09T09:23:31;25.00;58.10
69054;DHT22;56125;52.242;4.756;2023-07-09T09:28:37;25.00;58.10
69054;DHT22;56125;52.242;4.756;2023-07-09T09:33:45;25.00;57.90
69054;DHT22;56125;52.242;4.756;2023-07-09T09:38:46;25.00;58.00
69054;DHT22;56125;52.242;4.756;2023-07-09T09:43:49;25.00;58.30
69054;DHT22;56125;52.242;4.756;2023-07-09T09:48:55;25.00;58.10
69054;DHT22;56125;52.242;4.756;2023-07-09T09:54:01;25.00;58.20
69054;DHT22;56125;52.242;4.756;2023-07-09T09:59:03;25.00;58.40
69054;DHT22;56125;52.242;4.756;2023-07-09T10:04:05;25.00;58.50
69054;DHT22;56125;52.242;4.756;2023-07-09T10:14:30;25.00;58.40
69054;DHT22;56125;52.242;4.756;2023-07-09T10:19:43;25.00;58.30
69054;DHT22;56125;52.242;4.756;2023-07-09T10:25:10;25.00;58.20
69054;DHT22;56125;52.242;4.756;2023-07-09T10:30:17;25.00;58.30
69054;DHT22;56125;52.242;4.756;2023-07-09T10:35:41;25.00;58.40
69054;DHT22;56125;52.242;4.756;2023-07-09T10:40:48;25.00;58.40
69054;DHT22;56125;52.242;4.756;2023-07-09T10:45:56;25.00;58.40
69054;DHT22;56125;52.242;4.756;2023-07-09T10:50:59;25.00;58.60
69054;DHT22;56125;52.242;4.756;2023-07-09T10:56:08;25.00;58.60
69054;DHT22;56125;52.242;4.756;2023-07-09T11:01:14;25.00;58.70
69054;DHT22;56125;52.242;4.756;2023-07-09T11:06:22;25.00;59.00
69054;DHT22;56125;52.242;4.756;2023-07-09T11:11:54;25.10;59.10
69054;DHT22;56125;52.242;4.756;2023-07-09T11:16:57;25.10;59.10
69054;DHT22;56125;52.242;4.756;2023-07-09T11:27:24;25.10;58.70
69054;DHT22;56125;52.242;4.756;2023-07-09T11:32:27;25.10;58.50
69054;DHT22;56125;52.242;4.756;2023-07-09T11:37:28;25.10;58.50
69054;DHT22;56125;52.242;4.756;2023-07-09T11:42:32;25.20;58.50
69054;DHT22;56125;52.242;4.756;2023-07-09T11:52:54;25.20;58.40
69054;DHT22;56125;52.242;4.756;2023-07-09T11:58:03;25.20;58.50
69054;DHT22;56125;52.242;4.756;2023-07-09T12:03:05;25.20;58.30
69054;DHT22;56125;52.242;4.756;2023-07-09T12:08:07;25.20;58.40
69054;DHT22;56125;52.242;4.756;2023-07-09T12:13:10;25.20;58.50
69054;DHT22;56125;52.242;4.756;2023-07-09T12:18:13;25.20;58.40
69054;DHT22;56125;52.242;4.756;2023-07-09T12:23:30;25.20;58.40
69054;DHT22;56125;52.242;4.756;2023-07-09T12:28:31;25.20;58.60
69054;DHT22;56125;52.242;4.756;2023-07-09T12:33:32;25.20;58.20
69054;DHT22;56125;52.242;4.756;2023-07-09T12:38:42;25.20;58.30
69054;DHT22;56125;52.242;4.756;2023-07-09T12:43:44;25.20;58.30
69054;DHT22;56125;52.242;4.756;2023-07-09T12:48:45;25.20;58.30
69054;DHT22;56125;52.242;4.756;2023-07-09T12:53:47;25.20;58.20
69054;DHT22;56125;52.242;4.756;2023-07-09T12:58:48;25.20;58.20
69054;DHT22;56125;52.242;4.756;2023-07-09T13:03:56;25.20;58.10
69054;DHT22;56125;52.242;4.756;2023-07-09T13:08:59;25.20;58.30
69054;DHT22;56125;52.242;4.756;2023-07-09T13:14:11;25.20;58.10
69054;DHT22;56125;52.242;4.756;2023-07-09T13:19:17;25.20;58.10
69054;DHT22;56125;52.242;4.756;2023-07-09T13:24:38;25.20;58.20
69054;DHT22;56125;52.242;4.756;2023-07-09T13:29:40;25.20;58.10
69054;DHT22;56125;52.242;4.756;2023-07-09T13:34:43;25.20;58.30
69054;DHT22;56125;52.242;4.756;2023-07-09T13:39:44;25.20;58.20
69054;DHT22;56125;52.242;4.756;2023-07-09T13:44:46;25.20;58.20
69054;DHT22;56125;52.242;4.756;2023-07-09T13:49:48;25.20;58.30
69054;DHT22;56125;52.242;4.756;2023-07-09T13:54:49;25.20;58.30
69054;DHT22;56125;52.242;4.756;2023-07-09T13:59:50;25.20;58.10
69054;DHT22;56125;52.242;4.756;2023-07-09T14:04:52;25.20;58.20
69054;DHT22;56125;52.242;4.756;2023-07-09T14:09:53;25.20;58.10
69054;DHT22;56125;52.242;4.756;2023-07-09T14:14:57;25.20;58.00
69054;DHT22;56125;52.242;4.756;2023-07-09T14:19:59;25.20;58.00
69054;DHT22;56125;52.242;4.756;2023-07-09T14:25:02;25.20;57.90
69054;DHT22;56125;52.242;4.756;2023-07-09T14:30:04;25.20;57.90
69054;DHT22;56125;52.242;4.756;2023-07-09T14:40:16;25.10;57.80
69054;DHT22;56125;52.242;4.756;2023-07-09T14:45:23;25.10;57.80
69054;DHT22;56125;52.242;4.756;2023-07-09T14:50:25;25.00;57.90
69054;DHT22;56125;52.242;4.756;2023-07-09T14:55:26;25.00;58.10
69054;DHT22;56125;52.242;4.756;2023-07-09T15:00:30;25.00;58.20
69054;DHT22;56125;52.242;4.756;2023-07-09T15:05:31;25.00;58.20
69054;DHT22;56125;52.242;4.756;2023-07-09T15:10:32;25.00;58.30
69054;DHT22;56125;52.242;4.756;2023-07-09T15:15:33;24.90;58.40
69054;DHT22;56125;52.242;4.756;2023-07-09T15:20:34;25.00;58.50
69054;DHT22;56125;52.242;4.756;2023-07-09T15:25:35;24.90;58.50
69054;DHT22;56125;52.242;4.756;2023-07-09T15:30:36;24.90;58.60
69054;DHT22;56125;52.242;4.756;2023-07-09T15:35:37;24.90;58.60
69054;DHT22;56125;52.242;4.756;2023-07-09T15:40:39;24.90;58.70
69054;DHT22;56125;52.242;4.756;2023-07-09T15:45:45;24.90;59.10
69054;DHT22;56125;52.242;4.756;2023-07-09T15:50:47;24.90;59.10
69054;DHT22;56125;52.242;4.756;2023-07-09T15:55:48;24.90;59.00
69054;DHT22;56125;52.242;4.756;2023-07-09T16:00:51;24.90;59.30
69054;DHT22;56125;52.242;4.756;2023-07-09T16:05:52;25.10;59.30
69054;DHT22;56125;52.242;4.756;2023-07-09T16:10:53;24.80;59.20
69054;DHT22;56125;52.242;4.756;2023-07-09T16:15:54;24.80;59.30
69054;DHT22;56125;52.242;4.756;2023-07-09T16:20:55;24.80;59.30
69054;DHT22;56125;52.242;4.756;2023-07-09T16:25:56;24.80;59.40
69054;DHT22;56125;52.242;4.756;2023-07-09T16:30:57;24.80;60.60
69054;DHT22;56125;52.242;4.756;2023-07-09T16:35:58;24.80;59.80
69054;DHT22;56125;52.242;4.756;2023-07-09T16:41:04;24.80;60.20
69054;DHT22;56125;52.242;4.756;2023-07-09T16:46:17;24.80;59.90
69054;DHT22;56125;52.242;4.756;2023-07-09T16:51:19;24.80;59.70
69054;DHT22;56125;52.242;4.756;2023-07-09T16:56:21;24.80;59.50
69054;DHT22;56125;52.242;4.756;2023-07-09T17:01:22;24.80;59.50
69054;DHT22;56125;52.242;4.756;2023-07-09T17:06:23;24.80;59.50
69054;DHT22;56125;52.242;4.756;2023-07-09T17:11:24;24.80;59.50
69054;DHT22;56125;52.242;4.756;2023-07-09T17:16:25;24.80;59.30
69054;DHT22;56125;52.242;4.756;2023-07-09T17:21:26;24.80;59.40
69054;DHT22;56125;52.242;4.756;2023-07-09T17:26:27;24.80;59.40
69054;DHT22;56125;52.242;4.756;2023-07-09T17:31:28;24.80;59.60
69054;DHT22;56125;52.242;4.756;2023-07-09T17:36:30;24.80;59.40
69054;DHT22;56125;52.242;4.756;2023-07-09T17:41:33;24.80;59.50
69054;DHT22;56125;52.242;4.756;2023-07-09T17:46:34;24.70;59.40
69054;DHT22;56125;52.242;4.756;2023-07-09T17:51:35;24.70;59.50
69054;DHT22;56125;52.242;4.756;2023-07-09T17:56:36;24.70;59.40
69054;DHT22;56125;52.242;4.756;2023-07-09T18:01:37;24.70;61.50
69054;DHT22;56125;52.242;4.756;2023-07-09T18:06:38;24.50;61.90
69054;DHT22;56125;52.242;4.756;2023-07-09T18:11:39;24.50;61.90
69054;DHT22;56125;52.242;4.756;2023-07-09T18:16:40;24.40;62.40
69054;DHT22;56125;52.242;4.756;2023-07-09T18:21:41;24.40;62.50
69054;DHT22;56125;52.242;4.756;2023-07-09T18:26:42;24.30;62.40
69054;DHT22;56125;52.242;4.756;2023-07-09T18:31:43;24.30;63.20
69054;DHT22;56125;52.242;4.756;2023-07-09T18:36:45;24.20;62.10
69054;DHT22;56125;52.242;4.756;2023-07-09T18:41:46;24.10;61.90
69054;DHT22;56125;52.242;4.756;2023-07-09T18:46:47;24.10;62.10
69054;DHT22;56125;52.242;4.756;2023-07-09T18:51:49;24.10;63.30
69054;DHT22;56125;52.242;4.756;2023-07-09T18:56:50;24.10;62.70
69054;DHT22;56125;52.242;4.756;2023-07-09T19:01:51;24.00;62.30
69054;DHT22;56125;52.242;4.756;2023-07-09T19:06:52;24.00;62.20
69054;DHT22;56125;52.242;4.756;2023-07-09T19:11:53;24.00;62.10
69054;DHT22;56125;52.242;4.756;2023-07-09T19:16:57;23.90;61.70
69054;DHT22;56125;52.242;4.756;2023-07-09T19:21:58;23.90;61.40
69054;DHT22;56125;52.242;4.756;2023-07-09T19:26:59;23.90;61.40
69054;DHT22;56125;52.242;4.756;2023-07-09T19:32:04;23.90;61.60
69054;DHT22;56125;52.242;4.756;2023-07-09T19:37:15;23.90;61.20
69054;DHT22;56125;52.242;4.756;2023-07-09T19:42:22;23.80;61.30
69054;DHT22;56125;52.242;4.756;2023-07-09T19:47:28;23.80;60.90
69054;DHT22;56125;52.242;4.756;2023-07-09T19:52:31;23.80;60.80
69054;DHT22;56125;52.242;4.756;2023-07-09T19:57:32;23.70;60.60
69054;DHT22;56125;52.242;4.756;2023-07-09T20:02:33;23.70;60.60
69054;DHT22;56125;52.242;4.756;2023-07-09T20:07:35;23.70;60.50
69054;DHT22;56125;52.242;4.756;2023-07-09T20:12:36;23.70;60.50
69054;DHT22;56125;52.242;4.756;2023-07-09T20:17:37;23.70;60.50
69054;DHT22;56125;52.242;4.756;2023-07-09T20:22:38;23.60;60.40
69054;DHT22;56125;52.242;4.756;2023-07-09T20:27:40;23.70;60.40
69054;DHT22;56125;52.242;4.756;2023-07-09T20:32:41;23.60;60.40
69054;DHT22;56125;52.242;4.756;2023-07-09T20:37:43;23.60;60.20
69054;DHT22;56125;52.242;4.756;2023-07-09T20:42:45;23.60;60.10
69054;DHT22;56125;52.242;4.756;2023-07-09T20:47:51;23.60;60.00
69054;DHT22;56125;52.242;4.756;2023-07-09T20:52:52;23.60;60.10
69054;DHT22;56125;52.242;4.756;2023-07-09T20:57:56;23.60;60.20
69054;DHT22;56125;52.242;4.756;2023-07-09T21:02:57;23.60;60.00
69054;DHT22;56125;52.242;4.756;2023-07-09T21:07:58;23.50;60.00
69054;DHT22;56125;52.242;4.756;2023-07-09T21:12:59;23.50;60.00
69054;DHT22;56125;52.242;4.756;2023-07-09T21:18:01;23.50;60.00
69054;DHT22;56125;52.242;4.756;2023-07-09T21:23:02;23.50;59.90
69054;DHT22;56125;52.242;4.756;2023-07-09T21:28:03;23.40;59.70
69054;DHT22;56125;52.242;4.756;2023-07-09T21:33:08;23.40;60.50
69054;DHT22;56125;52.242;4.756;2023-07-09T21:38:23;23.40;59.40
69054;DHT22;56125;52.242;4.756;2023-07-09T21:43:24;23.40;59.50
69054;DHT22;56125;52.242;4.756;2023-07-09T21:48:26;23.40;59.70
69054;DHT22;56125;52.242;4.756;2023-07-09T21:53:28;23.30;59.80
69054;DHT22;56125;52.242;4.756;2023-07-09T21:58:32;23.30;59.80
69054;DHT22;56125;52.242;4.756;2023-07-09T22:03:33;23.30;59.90
69054;DHT22;56125;52.242;4.756;2023-07-09T22:08:34;23.30;60.00
69054;DHT22;56125;52.242;4.756;2023-07-09T22:13:36;23.20;60.10
69054;DHT22;56125;52.242;4.756;2023-07-09T22:18:37;23.30;60.10
69054;DHT22;56125;52.242;4.756;2023-07-09T22:23:38;23.30;60.00
69054;DHT22;56125;52.242;4.756;2023-07-09T22:28:39;23.30;60.00
69054;DHT22;56125;52.242;4.756;2023-07-09T22:33:42;23.20;60.00
69054;DHT22;56125;52.242;4.756;2023-07-09T22:38:43;23.20;60.00
69054;DHT22;56125;52.242;4.756;2023-07-09T22:43:45;23.20;60.10
69054;DHT22;56125;52.242;4.756;2023-07-09T22:48:46;23.20;60.00
69054;DHT22;56125;52.242;4.756;2023-07-09T22:53:47;23.20;60.10
69054;DHT22;56125;52.242;4.756;2023-07-09T22:58:48;23.20;60.30
69054;DHT22;56125;52.242;4.756;2023-07-09T23:03:50;23.20;60.40
69054;DHT22;56125;52.242;4.756;2023-07-09T23:08:53;23.30;60.50
69054;DHT22;56125;52.242;4.756;2023-07-09T23:13:55;23.20;61.60
69054;DHT22;56125;52.242;4.756;2023-07-09T23:19:19;23.30;60.50
69054;DHT22;56125;52.242;4.756;2023-07-09T23:24:20;23.20;60.50
69054;DHT22;56125;52.242;4.756;2023-07-09T23:29:23;23.20;60.60
69054;DHT22;56125;52.242;4.756;2023-07-09T23:34:24;23.20;60.70
69054;DHT22;56125;52.242;4.756;2023-07-09T23:39:25;23.20;60.60
69054;DHT22;56125;52.242;4.756;2023-07-09T23:44:30;23.20;60.60
69054;DHT22;56125;52.242;4.756;2023-07-09T23:49:31;23.20;60.80
69054;DHT22;56125;52.242;4.756;2023-07-09T23:54:32;23.20;60.70
69054;DHT22;56125;52.242;4.756;2023-07-09T23:59:34;23.20;60.80
